White Bluff, TN (37187)

10:10 PM CDT on August 26, 2016 (GMT -0500)
The Chapel in the Woods Weather | | Change Station

Elev 827 ft 36.11 °N, 87.21 °W | Updated 45 seconds ago

Rain
Rain
71.8 °F
Feels Like 71.8 °F
N
4.2
Wind Variable Wind from East
Gusts 5.3 mph

Today
High -- | Low -- °F
--% Chance of Precip.
Yesterday
High -- | Low -- °F
Precip. -- in
Pressure 30.06 in
Visibility 10.0 miles
Clouds Few 2900 ft
Mostly Cloudy 6000 ft
Overcast 20000 ft
Dew Point 70 °F
Humidity 94%
Rainfall 0.74 in
Snow Depth Not available.
6:16 AM 7:24 PM
Waning Crescent, 28% visible
METAR KBNA 270253Z 24006G20KT 10SM VCTS FEW029CB BKN060 OVC200 26/22 A3008 RMK AO2 WSHFT 0235 LTG DSNT S-W TSB15 SLP179 TS SW-W MOV NW T02610217 52013
Pressure 30.06 in
Visibility 10.0 miles
Clouds Few 2900 ft
Mostly Cloudy 6000 ft
Overcast 20000 ft
Dew Point 70 °F
Humidity 94%
Rainfall 0.74 in
Snow Depth Not available.
6:16 AM 7:24 PM
Waning Crescent, 28% visible
METAR KBNA 270253Z 24006G20KT 10SM VCTS FEW029CB BKN060 OVC200 26/22 A3008 RMK AO2 WSHFT 0235 LTG DSNT S-W TSB15 SLP179 TS SW-W MOV NW T02610217 52013

10-Day Weather Forecast

Almanac

Astronomy

Aug. 26, 2016 Rise Set
Actual Time
Civil Twilight
Nautical Twilight
Astronomical Twilight
Moon
Length of Visible Light
Length of Day
Tomorrow will be .
, % of the Moon is Illuminated

Today's Extremes

State Highs State Lows

Community

WunderPhotos

Upload Photos

1,935,281 photos uploaded!

WunderBlog® & News

Nearby

Air Quality

  Air Quality AQ Index Pollutant
Not available.

Snow Depth

Station Depth Elevation

Earthquake Activity

City Distance Mag. Time & Date
Minimum magnitude displayed is 2.5.

Coastal Water Temperatures

Place Temperature

Stations

Nearby Weather Stations

Station Location Temp. Windchill Dew Point Humidity Wind Precip. Elev Updated Type
                   

Watches & Warnings

There are currently no watches in effect.